createdAt,value
2023-04-14T00:02:19.726Z,27.3
2023-04-14T00:07:21.586Z,27.3
2023-04-14T00:12:23.401Z,27.3
2023-04-14T00:17:25.217Z,27.3
2023-04-14T00:22:27.020Z,27.3
2023-04-14T00:27:28.809Z,27.3
2023-04-14T00:32:30.617Z,27.3
2023-04-14T00:37:32.442Z,27.2
2023-04-14T00:42:34.286Z,27.2
2023-04-14T00:47:36.095Z,27.2
2023-04-14T00:52:37.858Z,27.2
2023-04-14T00:57:39.634Z,27.2
2023-04-14T01:02:41.699Z,27.2
2023-04-14T01:07:43.706Z,27.2
2023-04-14T01:12:45.513Z,27.2
2023-04-14T01:17:47.305Z,27.2
2023-04-14T01:22:49.202Z,27.2
2023-04-14T01:27:51.012Z,27.2
2023-04-14T01:32:52.794Z,27.2
2023-04-14T01:37:54.580Z,27.2
2023-04-14T01:42:56.421Z,27.2
2023-04-14T01:47:58.346Z,27.2
2023-04-14T01:53:00.209Z,27.1
2023-04-14T01:58:01.979Z,27.1
2023-04-14T02:03:03.964Z,27.1
2023-04-14T02:08:05.809Z,27.1
2023-04-14T02:13:07.627Z,27.1
2023-04-14T02:18:09.380Z,27.1
2023-04-14T02:23:11.123Z,27.1
2023-04-14T02:28:12.857Z,27.1
2023-04-14T02:33:14.624Z,27.1
2023-04-14T02:38:16.349Z,27.1
2023-04-14T02:43:18.124Z,27.1
2023-04-14T02:48:19.862Z,27.1
2023-04-14T02:53:21.609Z,27.1
2023-04-14T02:58:23.379Z,27.1
2023-04-14T03:03:25.127Z,27.1
2023-04-14T03:08:26.885Z,27.1
2023-04-14T03:13:28.649Z,27.1
2023-04-14T03:18:30.378Z,27
2023-04-14T03:23:32.145Z,27
2023-04-14T03:28:35.006Z,27
2023-04-14T03:33:38.871Z,27
2023-04-14T03:38:40.658Z,27
2023-04-14T03:43:42.485Z,27
2023-04-14T03:48:44.307Z,27
2023-04-14T03:53:46.108Z,27
2023-04-14T03:58:47.946Z,27
2023-04-14T04:03:50.035Z,26.9
2023-04-14T04:08:52.052Z,26.9
2023-04-14T04:13:53.858Z,26.9
2023-04-14T04:18:55.676Z,26.9
2023-04-14T04:23:57.529Z,26.9
2023-04-14T04:28:59.622Z,26.9
2023-04-14T04:34:01.649Z,26.9
2023-04-14T04:39:03.672Z,26.9
2023-04-14T04:44:05.617Z,26.9
2023-04-14T04:49:07.402Z,26.9
2023-04-14T04:54:09.342Z,26.9
2023-04-14T04:59:11.258Z,26.9
2023-04-14T05:04:13.087Z,26.9
2023-04-14T05:09:14.888Z,26.9
2023-04-14T05:14:16.736Z,26.9
2023-04-14T05:19:18.520Z,26.9
2023-04-14T05:24:20.319Z,26.8
2023-04-14T05:29:22.150Z,26.8
2023-04-14T05:34:23.955Z,26.8
2023-04-14T05:39:26.076Z,26.8
2023-04-14T05:44:27.899Z,26.8
2023-04-14T05:49:29.675Z,26.8
2023-04-14T05:54:31.477Z,26.8
2023-04-14T05:59:33.304Z,26.8
2023-04-14T06:04:35.165Z,26.8
2023-04-14T06:09:37.059Z,26.8
2023-04-14T06:14:39.049Z,26.8
2023-04-14T06:19:41.193Z,26.8
2023-04-14T06:24:42.978Z,26.8
2023-04-14T06:29:44.801Z,26.8
2023-04-14T06:34:46.557Z,26.8
2023-04-14T06:39:48.358Z,26.8
2023-04-14T06:44:50.223Z,26.8
2023-04-14T06:49:52.273Z,26.8
2023-04-14T06:54:54.065Z,26.8
2023-04-14T06:59:55.886Z,26.7
2023-04-14T07:04:57.715Z,26.7
2023-04-14T07:09:59.606Z,26.7
2023-04-14T07:15:01.509Z,26.7
2023-04-14T07:20:03.462Z,26.7
2023-04-14T07:25:05.475Z,26.7
2023-04-14T07:30:07.261Z,26.7
2023-04-14T07:35:09.103Z,26.7
2023-04-14T07:40:10.887Z,26.6
2023-04-14T07:45:12.680Z,26.7
2023-04-14T07:50:14.614Z,26.6
2023-04-14T07:55:16.404Z,26.6
2023-04-14T08:00:18.238Z,26.6
2023-04-14T08:05:20.045Z,26.6
2023-04-14T08:10:21.948Z,26.6
2023-04-14T08:15:23.880Z,26.6
2023-04-14T08:20:25.742Z,26.6
2023-04-14T08:25:27.487Z,26.6
2023-04-14T08:30:29.321Z,26.6
2023-04-14T08:35:35.030Z,26.6
2023-04-14T08:40:40.194Z,26.6
2023-04-14T08:45:42.019Z,26.6
2023-04-14T08:50:43.931Z,26.6
2023-04-14T08:55:45.675Z,26.6
2023-04-14T09:00:47.474Z,26.6
2023-04-14T09:05:49.267Z,26.6
2023-04-14T09:10:51.099Z,26.6
2023-04-14T09:15:53.165Z,26.5
2023-04-14T09:21:29.832Z,26.6
2023-04-14T09:26:52.229Z,26.5
2023-04-14T09:31:54.120Z,26.5
2023-04-14T09:36:56.008Z,26.5
2023-04-14T09:41:57.774Z,26.5
2023-04-14T09:46:59.659Z,26.5
2023-04-14T09:52:01.492Z,26.5
2023-04-14T09:57:03.247Z,26.5
2023-04-14T10:02:05.187Z,26.5
2023-04-14T10:07:07.116Z,26.5
2023-04-14T10:12:09.815Z,26.4
2023-04-14T10:17:12.061Z,26.4
2023-04-14T10:22:13.799Z,26.4
2023-04-14T10:27:15.623Z,26.4
2023-04-14T10:32:20.267Z,26.4
2023-04-14T10:37:22.098Z,26.4
2023-04-14T10:42:23.857Z,26.4
2023-04-14T10:47:25.755Z,26.4
2023-04-14T10:52:27.617Z,26.4
2023-04-14T10:57:29.405Z,26.4
2023-04-14T11:02:31.393Z,26.4
2023-04-14T11:07:33.305Z,26.4
2023-04-14T11:12:35.124Z,26.4
2023-04-14T11:17:36.983Z,26.4
2023-04-14T11:22:38.927Z,26.4
2023-04-14T11:27:40.750Z,26.4
2023-04-14T11:32:42.623Z,26.4
2023-04-14T11:37:44.660Z,26.4
2023-04-14T11:42:46.562Z,26.3
2023-04-14T11:47:49.817Z,26.3
2023-04-14T11:52:52.152Z,26.3
2023-04-14T11:57:53.989Z,26.3
2023-04-14T12:02:55.997Z,26.3
2023-04-14T12:07:57.919Z,26.3
2023-04-14T12:12:59.267Z,26.3
2023-04-14T12:18:01.256Z,26.2
2023-04-14T12:23:03.354Z,26.2
2023-04-14T12:28:05.162Z,26.2
2023-04-14T12:33:06.978Z,26.2
2023-04-14T12:38:08.777Z,26.2
2023-04-14T12:43:10.648Z,26.2
2023-04-14T12:48:12.748Z,26.2
2023-04-14T12:53:14.575Z,26.2
2023-04-14T12:58:16.441Z,26.2
2023-04-14T13:03:18.390Z,26.2
2023-04-14T13:08:20.277Z,26.2
2023-04-14T13:13:22.070Z,26.1
2023-04-14T13:18:23.880Z,26.1
2023-04-14T13:23:26.028Z,26.1
2023-04-14T13:28:27.811Z,26.1
2023-04-14T13:33:29.576Z,26.1
2023-04-14T13:38:31.390Z,26.1
2023-04-14T13:43:33.191Z,26.1
2023-04-14T13:48:34.976Z,26.1
2023-04-14T13:53:36.734Z,26.1
2023-04-14T13:58:38.498Z,26.1
2023-04-14T14:03:40.566Z,26.1
2023-04-14T14:08:42.497Z,26.1
2023-04-14T14:13:44.329Z,26.1
2023-04-14T14:18:46.151Z,26.1
2023-04-14T14:23:50.984Z,26.1
2023-04-14T14:28:52.757Z,26.1
2023-04-14T14:33:54.709Z,26.1
2023-04-14T14:38:56.487Z,26.1
2023-04-14T14:43:59.308Z,26.1
2023-04-14T14:49:01.810Z,26.1
2023-04-14T14:54:09.655Z,26
2023-04-14T14:59:11.829Z,26
2023-04-14T15:04:13.672Z,26
2023-04-14T15:09:15.485Z,26
2023-04-14T15:14:17.348Z,26
2023-04-14T15:19:19.194Z,26
2023-04-14T15:24:20.965Z,26
2023-04-14T15:29:22.846Z,26
2023-04-14T15:34:24.658Z,25.9
2023-04-14T15:39:26.428Z,25.9
2023-04-14T15:44:28.218Z,25.9
2023-04-14T15:49:30.132Z,25.9
2023-04-14T15:54:32.063Z,25.9
2023-04-14T15:59:33.830Z,25.9
2023-04-14T16:04:35.757Z,25.9
2023-04-14T16:09:37.618Z,25.9
2023-04-14T16:14:39.439Z,25.9
2023-04-14T16:19:41.469Z,25.9
2023-04-14T16:24:43.271Z,25.9
2023-04-14T16:29:45.073Z,25.9
2023-04-14T16:34:46.909Z,26.5
2023-04-14T16:39:48.711Z,29.7
2023-04-14T16:44:49.014Z,32.8
2023-04-14T16:49:49.337Z,35.9
2023-04-14T16:54:49.787Z,38.9
2023-04-14T16:59:50.323Z,40.8
2023-04-14T17:04:51.019Z,41.1
2023-04-14T17:09:52.159Z,42.2
2023-04-14T17:14:52.783Z,42.9
2023-04-14T17:19:55.038Z,42.9
2023-04-14T17:24:55.876Z,43.4
2023-04-14T17:29:56.561Z,43.6
2023-04-14T17:34:57.394Z,43.6
2023-04-14T17:39:57.978Z,43.6
2023-04-14T17:44:58.604Z,43.6
2023-04-14T17:49:59.245Z,43.5
2023-04-14T17:54:59.848Z,43.5
2023-04-14T18:00:00.491Z,43.4
2023-04-14T18:05:01.260Z,43.4
2023-04-14T18:10:01.871Z,43
2023-04-14T18:15:02.496Z,42
2023-04-14T18:20:03.023Z,41.8
2023-04-14T18:25:03.627Z,41.7
2023-04-14T18:30:04.172Z,41.6
2023-04-14T18:35:04.660Z,41.5
2023-04-14T18:40:05.142Z,41.4
2023-04-14T18:45:05.604Z,41.3
2023-04-14T18:50:06.123Z,41.2
2023-04-14T18:55:06.578Z,41.1
2023-04-14T19:00:07.209Z,41
2023-04-14T19:05:07.707Z,40.9
2023-04-14T19:10:08.266Z,40.8
2023-04-14T19:15:08.957Z,40.8
2023-04-14T19:20:09.478Z,40.7
2023-04-14T19:25:09.990Z,40.6
2023-04-14T19:30:10.734Z,40.5
2023-04-14T19:35:11.262Z,40.4
2023-04-14T19:40:11.756Z,40.3
2023-04-14T19:45:12.258Z,40.2
2023-04-14T19:50:12.765Z,40.1
2023-04-14T19:55:13.265Z,40.1
2023-04-14T20:00:13.754Z,40
2023-04-14T20:05:14.292Z,39.9
2023-04-14T20:10:14.856Z,39.5
2023-04-14T20:15:15.361Z,39.2
2023-04-14T20:20:15.988Z,39.1
2023-04-14T20:25:16.420Z,39
2023-04-14T20:30:16.931Z,38.9
2023-04-14T20:35:17.400Z,38.8
2023-04-14T20:40:17.838Z,38.6
2023-04-14T20:45:18.388Z,38.4
2023-04-14T20:50:18.868Z,38.3
2023-04-14T20:55:19.356Z,38.2
2023-04-14T21:00:19.829Z,38.2
2023-04-14T21:05:20.557Z,38.1
2023-04-14T21:10:21.143Z,38
2023-04-14T21:15:31.631Z,37.9
2023-04-14T21:20:54.832Z,37.9
2023-04-14T21:25:55.270Z,37.8
2023-04-14T21:30:55.886Z,37.7
2023-04-14T21:35:56.521Z,37.7
2023-04-14T21:40:56.941Z,37.6
2023-04-14T21:45:57.729Z,37.5
2023-04-14T21:50:58.338Z,37.4
2023-04-14T21:56:09.603Z,37.4
2023-04-14T22:01:11.192Z,37.3
2023-04-14T22:06:11.677Z,37.2
2023-04-14T22:11:12.111Z,37.2
2023-04-14T22:16:12.502Z,37.1
2023-04-14T22:21:12.882Z,37.1
2023-04-14T22:26:13.420Z,37
2023-04-14T22:31:13.890Z,36.9
2023-04-14T22:36:14.703Z,36.9
2023-04-14T22:41:15.992Z,36.9
2023-04-14T22:46:16.443Z,36.8
2023-04-14T22:51:16.984Z,36.7
2023-04-14T22:56:17.413Z,36.7
2023-04-14T23:01:22.236Z,36.6
2023-04-14T23:06:23.109Z,36.6
2023-04-14T23:11:23.547Z,36.5
2023-04-14T23:16:24.078Z,36.4
2023-04-14T23:21:24.606Z,36.4
2023-04-14T23:26:25.146Z,36.4
2023-04-14T23:31:25.547Z,36.3
2023-04-14T23:36:25.996Z,36.2
2023-04-14T23:41:26.444Z,36.2
2023-04-14T23:46:26.853Z,36.1
2023-04-14T23:51:27.276Z,36.1
2023-04-14T23:56:27.935Z,36.1
